Time;durP1;ratioP1;P1;durP2;ratioP2;P2;SDS_P1;SDS_P2;PMS_P1;PMS_P2;Temp;Humidity;BMP_temperature;BMP_pressure;BME280_temperature;BME280_humidity;BME280_pressure;Samples;Min_cycle;Max_cycle;Signal;HPM_P1;HPM_P2
2023/03/24 00:00:45;;;;;;;;;5.00;5.00;;;;;15.31;65.45;99677.47;5059668;28;46609;-70
2023/03/24 00:03:10;;;;;;;;;4.67;3.00;;;;;15.60;65.55;99732.78;5064200;28;45568;-71
2023/03/24 00:05:37;;;;;;;;;4.33;4.00;;;;;15.61;65.83;99730.09;5065069;28;45310;-71
2023/03/24 00:08:03;;;;;;;;;3.00;3.00;;;;;15.47;65.67;99713.16;5064640;28;45053;-75
2023/03/24 00:10:33;;;;;;;;;4.33;3.33;;;;;15.46;65.42;99714.97;5065242;28;46975;-75
2023/03/24 00:12:59;;;;;;;;;7.00;5.00;;;;;15.55;65.60;99724.75;5060192;28;45072;-75
2023/03/24 00:15:26;;;;;;;;;4.00;3.67;;;;;15.60;65.81;99730.09;5063077;28;45646;-76
2023/03/24 00:17:54;;;;;;;;;5.67;5.00;;;;;15.60;65.91;99725.59;5061380;28;45091;-76
2023/03/24 00:20:21;;;;;;;;;1.67;1.67;;;;;15.60;65.55;99744.44;5057413;28;45367;-78
2023/03/24 00:22:55;;;;;;;;;4.67;3.00;;;;;15.52;65.43;99723.91;5057239;28;45471;-77
2023/03/24 00:25:22;;;;;;;;;4.00;4.00;;;;;15.61;65.94;99738.16;5066204;28;45253;-73
2023/03/24 00:27:50;;;;;;;;;3.00;3.00;;;;;15.33;65.61;99698.94;5066894;28;45280;-73
2023/03/24 00:30:17;;;;;;;;;4.67;4.33;;;;;15.48;65.49;99728.44;5065927;28;46595;-78
2023/03/24 00:32:43;;;;;;;;;3.67;2.67;;;;;15.57;66.03;99736.38;5075619;28;45298;-75
2023/03/24 00:35:11;;;;;;;;;2.67;2.67;;;;;15.58;65.96;99738.19;5070318;28;45068;-79
2023/03/24 00:37:38;;;;;;;;;3.67;3.00;;;;;15.53;65.85;99740.03;5066421;28;45049;-77
2023/03/24 00:40:11;;;;;;;;;2.67;2.67;;;;;15.59;65.81;99753.44;5065458;28;46416;-76
2023/03/24 00:42:37;;;;;;;;;1.33;1.33;;;;;15.61;66.08;99761.50;5063074;28;45130;-76
2023/03/24 00:45:05;;;;;;;;;0.00;0.00;;;;;15.45;65.77;99741.91;5033637;28;45044;-78
2023/03/24 00:47:35;;;;;;;;;1.67;1.67;;;;;15.55;65.68;99772.31;5030978;28;45368;-73
2023/03/24 00:50:03;;;;;;;;;2.33;2.33;;;;;15.40;65.41;99744.63;5028078;28;45749;-78
2023/03/24 00:52:32;;;;;;;;;1.67;1.67;;;;;15.61;65.85;99788.44;5024865;28;45369;-77
2023/03/24 00:55:00;;;;;;;;;2.33;2.33;;;;;15.56;66.05;99782.16;5032430;28;44983;-73
2023/03/24 00:57:28;;;;;;;;;3.00;3.00;;;;;15.52;66.13;99786.69;5028677;28;45344;-76
2023/03/24 00:59:55;;;;;;;;;3.00;2.67;;;;;15.52;66.13;99777.75;5031112;28;45284;-78
2023/03/24 01:02:26;;;;;;;;;7.00;3.00;;;;;15.30;66.03;99746.53;5022206;28;45161;-76
2023/03/24 01:05:01;;;;;;;;;4.00;2.67;;;;;15.55;65.41;99783.97;5027734;28;45198;-74
2023/03/24 01:07:29;;;;;;;;;3.00;3.00;;;;;15.54;66.10;99773.22;5039452;28;46263;-74
2023/03/24 01:09:58;;;;;;;;;3.67;2.33;;;;;15.60;66.04;99782.13;5013996;28;46890;-76
2023/03/24 01:12:35;;;;;;;;;1.67;1.67;;;;;15.60;65.98;99782.13;5018758;28;45181;-76
2023/03/24 01:15:05;;;;;;;;;3.33;2.00;;;;;15.57;65.66;99776.78;5015767;28;45590;-77
2023/03/24 01:17:31;;;;;;;;;2.67;1.33;;;;;15.53;65.82;99761.56;5017640;28;45341;-76
2023/03/24 01:19:57;;;;;;;;;4.33;4.00;;;;;15.52;65.89;99766.97;5028986;28;46079;-73
2023/03/24 01:22:28;;;;;;;;;4.00;2.00;;;;;15.47;65.89;99764.31;5022180;28;45241;-68
2023/03/24 01:24:53;;;;;;;;;4.33;1.67;;;;;15.59;65.66;99790.22;5032661;28;45045;-72
2023/03/24 01:27:19;;;;;;;;;2.33;2.33;;;;;15.62;65.50;99780.34;5031251;28;45119;-75
2023/03/24 01:29:44;;;;;;;;;3.67;2.67;;;;;15.60;65.21;99779.44;5022511;28;47793;-69
2023/03/24 01:32:10;;;;;;;;;2.67;2.00;;;;;15.53;65.48;99771.47;5024286;28;45132;-76
2023/03/24 01:34:35;;;;;;;;;2.67;0.67;;;;;15.59;65.15;99788.44;5025650;28;45351;-77
2023/03/24 01:37:01;;;;;;;;;1.67;1.67;;;;;15.51;65.52;99762.47;5028054;28;45283;-78
2023/03/24 01:39:27;;;;;;;;;3.00;1.67;;;;;15.52;65.12;99762.47;5027656;28;45689;-76
2023/03/24 01:41:52;;;;;;;;;1.67;1.67;;;;;15.53;64.96;99775.03;5031525;28;45388;-79
2023/03/24 01:44:31;;;;;;;;;4.00;3.00;;;;;15.53;64.84;99775.03;5044434;28;45382;-75
2023/03/24 01:46:57;;;;;;;;;1.00;1.00;;;;;15.34;64.57;99747.38;5060651;28;45116;-75
2023/03/24 01:49:27;;;;;;;;;1.67;1.00;;;;;15.52;64.24;99781.31;5062021;28;45357;-69
2023/03/24 01:51:57;;;;;;;;;1.00;1.00;;;;;15.47;63.82;99799.31;5061782;28;44993;-77
2023/03/24 01:54:27;;;;;;;;;1.67;1.67;;;;;15.45;64.20;99811.91;5071110;28;45226;-79
2023/03/24 01:57:09;;;;;;;;;2.00;2.00;;;;;15.45;64.35;99801.13;5066683;28;44957;-72
2023/03/24 01:59:38;;;;;;;;;3.00;1.00;;;;;15.24;63.62;99765.41;5070411;28;47121;-78
2023/03/24 02:02:05;;;;;;;;;1.67;1.67;;;;;15.28;63.41;99767.19;5063002;28;45252;-76
2023/03/24 02:04:37;;;;;;;;;2.33;1.00;;;;;15.28;63.36;99758.22;5065368;28;44718;-75
2023/03/24 02:07:11;;;;;;;;;1.67;0.67;;;;;15.30;63.40;99745.66;5060370;28;44859;-76
2023/03/24 02:09:36;;;;;;;;;1.33;1.33;;;;;15.47;63.97;99772.41;5057075;28;45719;-75
2023/03/24 02:12:02;;;;;;;;;4.00;4.00;;;;;15.46;63.33;99781.41;5062862;28;45478;-77
2023/03/24 02:14:28;;;;;;;;;4.00;2.67;;;;;15.23;63.14;99750.19;5053266;28;45027;-75
2023/03/24 02:17:36;;;;;;;;;2.67;2.67;;;;;15.38;63.44;99775.19;5062571;28;44953;-73
2023/03/24 02:20:37;;;;;;;;;4.67;3.67;;;;;15.32;63.83;99765.34;5071921;28;47742;-73
2023/03/24 02:23:20;;;;;;;;;9.33;8.33;;;;;15.30;63.78;99784.19;5066783;28;45162;-78
2023/03/24 02:26:04;;;;;;;;;4.67;4.00;;;;;15.28;64.04;99786.03;5073214;28;45185;-72
2023/03/24 02:28:38;;;;;;;;;4.00;3.00;;;;;15.29;64.44;99792.28;5065214;28;45329;-78
2023/03/24 02:31:27;;;;;;;;;4.33;4.33;;;;;15.30;64.76;99789.59;5073980;28;47241;-77
2023/03/24 02:34:31;;;;;;;;;3.67;2.33;;;;;15.31;64.78;99809.34;5065557;28;45089;-77
2023/03/24 02:37:12;;;;;;;;;1.67;1.00;;;;;15.25;65.33;99780.66;5066563;28;45052;-73
2023/03/24 02:40:18;;;;;;;;;3.00;2.00;;;;;15.28;64.72;99788.72;5060975;28;45496;-71
2023/03/24 02:43:10;;;;;;;;;3.33;3.33;;;;;15.30;65.22;99800.34;5050624;28;45945;-70
2023/03/24 02:45:39;;;;;;;;;2.00;2.00;;;;;15.37;65.13;99821.84;5059425;28;45179;-72
2023/03/24 02:48:27;;;;;;;;;3.00;3.00;;;;;15.36;65.52;99818.25;5054393;28;45171;-73
2023/03/24 02:51:04;;;;;;;;;1.67;1.67;;;;;15.38;65.85;99810.19;5055782;28;44927;-72
2023/03/24 02:53:49;;;;;;;;;2.33;2.33;;;;;15.33;65.25;99796.75;5052808;28;45405;-73
2023/03/24 02:56:36;;;;;;;;;2.00;2.00;;;;;15.39;65.14;99817.31;5063848;28;45081;-73
2023/03/24 02:59:05;;;;;;;;;5.00;3.33;;;;;15.40;65.53;99809.25;5052031;28;45209;-79
2023/03/24 03:01:36;;;;;;;;;2.00;2.00;;;;;15.34;65.29;99790.44;5064781;28;45287;-71
2023/03/24 03:04:11;;;;;;;;;1.67;1.67;;;;;15.42;65.21;99802.03;5066142;28;46815;-74
2023/03/24 03:06:39;;;;;;;;;3.00;1.00;;;;;15.36;65.40;99794.03;5063182;28;45223;-77
2023/03/24 03:09:11;;;;;;;;;0.67;0.67;;;;;15.03;65.37;99741.38;5062491;28;45448;-78
2023/03/24 03:11:41;;;;;;;;;2.33;1.33;;;;;15.32;66.05;99823.69;5063768;28;45082;-77
2023/03/24 03:14:25;;;;;;;;;2.33;2.00;;;;;15.28;67.00;99828.19;5065300;28;45663;-78
2023/03/24 03:16:59;;;;;;;;;2.00;2.00;;;;;15.20;66.54;99816.59;5057448;28;45182;-78
2023/03/24 03:19:33;;;;;;;;;2.67;1.33;;;;;15.27;66.21;99843.44;5068925;28;45141;-75
2023/03/24 03:22:02;;;;;;;;;3.00;1.33;;;;;15.05;65.96;99810.41;5060176;28;45157;-75
2023/03/24 03:24:40;;;;;;;;;2.33;0.33;;;;;14.97;64.13;99820.34;5071140;28;45444;-77
2023/03/24 03:27:13;;;;;;;;;1.00;1.00;;;;;14.98;64.30;99837.34;5067558;28;45007;-74
2023/03/24 03:29:43;;;;;;;;;4.00;2.00;;;;;14.97;63.98;99852.59;5062428;28;45190;-76
2023/03/24 03:32:13;;;;;;;;;3.00;1.00;;;;;14.92;63.77;99849.94;5061575;28;44974;-73
2023/03/24 03:34:57;;;;;;;;;0.00;0.00;;;;;14.89;63.35;99851.75;5065638;28;46516;-72
2023/03/24 03:37:51;;;;;;;;;0.33;0.33;;;;;14.82;63.09;99861.66;5063249;28;45214;-72
2023/03/24 03:40:23;;;;;;;;;0.00;0.00;;;;;14.67;63.27;99857.25;5047107;28;45304;-71
2023/03/24 03:42:48;;;;;;;;;1.00;0.67;;;;;14.76;63.56;99874.25;5066173;28;45251;-74
2023/03/24 03:45:14;;;;;;;;;1.00;0.67;;;;;14.63;63.63;99849.19;5072091;28;46017;-71
2023/03/24 03:47:39;;;;;;;;;1.33;1.00;;;;;14.66;63.14;99850.06;5063215;28;45052;-68
2023/03/24 03:50:07;;;;;;;;;3.00;1.00;;;;;14.74;63.27;99867.06;5063819;28;45219;-74
2023/03/24 03:52:33;;;;;;;;;2.00;1.00;;;;;14.74;63.08;99863.50;5063505;28;44959;-73
2023/03/24 03:55:00;;;;;;;;;2.00;2.00;;;;;14.74;63.15;99863.50;5062819;28;45218;-75
2023/03/24 03:57:26;;;;;;;;;2.33;1.00;;;;;14.62;63.11;99831.28;5064373;28;45188;-74
2023/03/24 03:59:51;;;;;;;;;0.00;0.00;;;;;14.79;62.86;99855.41;5071296;28;45057;-71
2023/03/24 04:02:48;;;;;;;;;1.67;1.00;;;;;14.79;62.72;99861.66;5072170;28;45292;-75
2023/03/24 04:05:32;;;;;;;;;1.00;1.00;;;;;14.79;62.92;99875.13;5067851;28;45446;-73
2023/03/24 04:08:07;;;;;;;;;2.00;0.00;;;;;14.77;62.55;99887.69;5072257;28;44930;-74
2023/03/24 04:11:10;;;;;;;;;1.33;0.67;;;;;14.77;62.76;99876.94;5055335;28;45368;-73
2023/03/24 04:13:53;;;;;;;;;3.67;1.00;;;;;14.71;61.69;99856.31;5066830;28;45087;-75
2023/03/24 04:16:46;;;;;;;;;0.00;0.00;;;;;14.73;62.07;99878.75;5059180;28;45527;-77
2023/03/24 04:19:32;;;;;;;;;3.00;1.00;;;;;14.72;62.13;99871.56;5062442;28;45278;-69
2023/03/24 04:22:19;;;;;;;;;1.00;1.00;;;;;14.68;62.03;99882.34;5070041;28;45272;-76
2023/03/24 04:24:53;;;;;;;;;2.00;0.33;;;;;14.67;62.20;99888.63;5079315;28;45198;-75
2023/03/24 04:27:37;;;;;;;;;0.33;0.00;;;;;14.68;61.85;99894.00;5062039;28;45192;-79
2023/03/24 04:30:52;;;;;;;;;2.00;0.33;;;;;14.69;61.60;99897.56;5061654;28;45627;-80
2023/03/24 04:33:39;;;;;;;;;1.00;1.00;;;;;14.68;60.96;99901.16;5062715;28;45201;-75
2023/03/24 04:36:21;;;;;;;;;0.33;0.33;;;;;14.66;61.19;99911.91;5066054;28;44703;-80
2023/03/24 04:38:52;;;;;;;;;0.67;0.67;;;;;14.65;60.90;99906.53;5062045;28;45739;-73
2023/03/24 04:41:20;;;;;;;;;0.00;0.00;;;;;14.63;60.76;99916.41;5057330;28;45016;-77
2023/03/24 04:43:47;;;;;;;;;0.00;0.00;;;;;14.59;60.61;99912.84;5071613;28;45293;-75
2023/03/24 04:46:17;;;;;;;;;1.00;1.00;;;;;14.63;60.64;99928.03;5047392;28;45252;-71
2023/03/24 04:48:48;;;;;;;;;4.67;1.00;;;;;14.50;60.48;99902.06;5065856;28;45393;-75
2023/03/24 04:51:15;;;;;;;;;2.00;2.00;;;;;14.50;60.46;99915.50;5064899;28;45427;-73
2023/03/24 04:53:40;;;;;;;;;2.00;1.00;;;;;14.52;60.65;99933.44;5059750;28;44871;-69
2023/03/24 04:56:11;;;;;;;;;3.00;0.00;;;;;14.50;60.55;99945.09;5056711;28;45214;-73
2023/03/24 04:58:37;;;;;;;;;1.33;0.00;;;;;14.38;60.78;99924.50;5056399;28;45254;-71
2023/03/24 05:01:04;;;;;;;;;1.00;1.00;;;;;14.44;60.78;99943.31;5055736;28;45251;-70
2023/03/24 05:03:30;;;;;;;;;0.33;0.33;;;;;14.42;60.94;99950.50;5057081;28;45132;-70
2023/03/24 05:05:56;;;;;;;;;2.00;2.00;;;;;14.37;61.13;99952.31;5064062;28;45083;-74
2023/03/24 05:08:21;;;;;;;;;1.00;1.00;;;;;14.30;61.52;99961.25;5069805;28;46070;-71
2023/03/24 05:10:47;;;;;;;;;1.00;1.00;;;;;14.27;61.71;99956.78;5056102;28;45336;-78
2023/03/24 05:13:13;;;;;;;;;1.00;1.00;;;;;14.25;62.02;99955.00;5059595;28;44923;-72
2023/03/24 05:15:39;;;;;;;;;0.00;0.00;;;;;14.24;61.70;99954.09;5062254;28;45056;-73
2023/03/24 05:18:05;;;;;;;;;1.33;1.00;;;;;14.27;61.89;99951.41;5057220;28;45661;-70
2023/03/24 05:20:31;;;;;;;;;2.00;1.00;;;;;14.26;61.43;99957.69;5055974;28;45048;-73
2023/03/24 05:22:56;;;;;;;;;2.00;0.67;;;;;14.20;61.67;99963.06;5063790;28;45242;-70
2023/03/24 05:25:22;;;;;;;;;5.67;2.33;;;;;14.16;61.86;99963.97;5058822;28;45029;-77
2023/03/24 05:27:48;;;;;;;;;3.00;0.00;;;;;14.03;61.96;99957.69;5064163;28;45147;-72
2023/03/24 05:30:14;;;;;;;;;1.00;1.00;;;;;14.04;62.07;99955.91;5057520;28;44963;-79
2023/03/24 05:32:40;;;;;;;;;0.00;0.00;;;;;13.85;62.35;99928.19;5072499;28;45358;-77
2023/03/24 05:35:06;;;;;;;;;3.00;1.00;;;;;14.13;62.01;99980.97;5061250;28;45132;-74
2023/03/24 05:37:31;;;;;;;;;2.33;1.00;;;;;14.15;61.63;99981.84;5063153;28;45345;-70
2023/03/24 05:39:57;;;;;;;;;3.00;1.00;;;;;14.15;61.40;99981.84;5058660;28;53945;-71
2023/03/24 05:42:22;;;;;;;;;1.00;1.00;;;;;14.14;61.64;99984.56;5065013;28;44979;-74
2023/03/24 05:44:47;;;;;;;;;0.67;0.00;;;;;14.14;62.06;99985.47;5072344;28;45084;-76
2023/03/24 05:47:15;;;;;;;;;2.00;2.00;;;;;14.06;61.31;99981.88;5063416;28;45809;-71
2023/03/24 05:49:43;;;;;;;;;3.00;1.00;;;;;14.09;61.46;99991.72;5063601;28;45986;-73
2023/03/24 05:52:10;;;;;;;;;1.33;0.33;;;;;14.08;60.75;100001.56;5068908;28;44970;-71
2023/03/24 05:54:36;;;;;;;;;1.00;1.00;;;;;13.95;60.92;99981.88;5060661;28;45174;-80
2023/03/24 05:57:01;;;;;;;;;0.67;0.67;;;;;14.05;60.93;100006.06;5073445;28;45507;-79
2023/03/24 05:59:27;;;;;;;;;7.00;1.33;;;;;13.97;61.29;100008.72;5080813;28;45004;-76
2023/03/24 06:01:55;;;;;;;;;3.00;3.00;;;;;13.80;61.27;99985.44;5068678;28;45222;-78
2023/03/24 06:04:22;;;;;;;;;1.00;1.00;;;;;13.94;61.56;100009.63;5082134;28;45211;-78
2023/03/24 06:06:48;;;;;;;;;1.67;1.67;;;;;13.97;61.13;100023.06;5065488;28;45758;-71
2023/03/24 06:09:15;;;;;;;;;4.67;2.00;;;;;13.92;61.55;100022.13;5066561;28;45203;-75
2023/03/24 06:11:42;;;;;;;;;3.00;1.00;;;;;13.91;61.79;100033.78;5062833;28;45066;-79
2023/03/24 06:14:07;;;;;;;;;3.00;1.00;;;;;13.91;61.62;100035.56;5065590;28;45118;-76
2023/03/24 06:16:37;;;;;;;;;1.00;1.00;;;;;13.89;61.90;100048.09;5063972;28;46929;-72
2023/03/24 06:19:03;;;;;;;;;1.33;1.00;;;;;13.78;61.30;100030.19;5057588;28;45059;-77
2023/03/24 06:21:29;;;;;;;;;4.00;1.00;;;;;13.86;60.54;100056.16;5060438;28;45251;-75
2023/03/24 06:23:57;;;;;;;;;3.33;0.00;;;;;13.66;60.88;100037.31;5071982;28;44950;-74
2023/03/24 06:26:22;;;;;;;;;2.67;1.67;;;;;13.74;61.21;100065.06;5067570;28;45938;-74
2023/03/24 06:28:50;;;;;;;;;2.33;1.00;;;;;13.75;61.37;100069.56;5059881;28;44924;-78
2023/03/24 06:31:20;;;;;;;;;2.00;0.67;;;;;13.70;61.04;100068.66;5063130;28;45099;-68
2023/03/24 06:33:49;;;;;;;;;1.00;1.00;;;;;13.37;60.98;100017.56;5069680;28;45065;-69
2023/03/24 06:36:18;;;;;;;;;3.00;1.00;;;;;13.73;61.12;100082.97;5072443;28;45372;-75
2023/03/24 06:38:44;;;;;;;;;1.33;1.33;;;;;13.74;60.87;100090.16;5053722;28;45492;-74
2023/03/24 06:41:11;;;;;;;;;4.00;1.00;;;;;13.77;61.32;100086.56;5055798;28;45891;-72
2023/03/24 06:43:37;;;;;;;;;3.33;2.00;;;;;13.80;61.22;100097.31;5055202;28;45154;-74
2023/03/24 06:46:02;;;;;;;;;4.00;3.00;;;;;13.72;60.48;100077.59;5068602;28;46189;-73
2023/03/24 06:48:28;;;;;;;;;3.00;0.00;;;;;13.77;60.41;100086.56;5055810;28;45139;-74
2023/03/24 06:50:54;;;;;;;;;4.00;4.00;;;;;13.88;60.25;100100.91;5060844;28;45175;-74
2023/03/24 06:53:21;;;;;;;;;5.00;2.00;;;;;13.67;60.33;100068.66;5044198;28;45584;-75
2023/03/24 06:55:50;;;;;;;;;6.67;4.00;;;;;13.92;60.09;100112.56;5050502;28;45455;-74
2023/03/24 06:58:16;;;;;;;;;1.33;1.33;;;;;13.86;59.95;100093.75;5046958;28;45683;-74
2023/03/24 07:00:43;;;;;;;;;5.00;1.00;;;;;13.84;60.24;100099.09;5040663;28;45324;-77
2023/03/24 07:03:09;;;;;;;;;1.00;1.00;;;;;13.74;59.83;100089.25;5047726;28;45517;-70
2023/03/24 07:05:38;;;;;;;;;6.33;2.00;;;;;13.78;59.64;100105.38;5041046;28;45642;-74
2023/03/24 07:08:04;;;;;;;;;3.67;3.67;;;;;13.59;59.57;100079.34;5042365;28;45291;-71
2023/03/24 07:10:30;;;;;;;;;4.00;1.00;;;;;13.68;60.34;100095.50;5051619;28;45462;-73
2023/03/24 07:12:56;;;;;;;;;5.00;1.33;;;;;13.73;60.26;100112.50;5051695;28;45364;-74
2023/03/24 07:15:22;;;;;;;;;3.33;1.67;;;;;13.65;60.18;100098.16;5052265;28;48669;-75
2023/03/24 07:17:47;;;;;;;;;1.00;1.00;;;;;13.75;60.16;100121.47;5048753;28;45453;-74
2023/03/24 07:20:14;;;;;;;;;4.00;1.00;;;;;13.61;59.47;100109.78;5051755;28;45697;-69
2023/03/24 07:22:40;;;;;;;;;1.33;1.33;;;;;13.71;59.98;100126.81;5052866;28;45468;-75
2023/03/24 07:25:06;;;;;;;;;5.00;2.67;;;;;13.47;59.04;100077.53;5047015;28;45609;-72
2023/03/24 07:27:33;;;;;;;;;3.00;2.33;;;;;13.68;59.35;100124.09;5048733;28;45382;-75
2023/03/24 07:29:59;;;;;;;;;1.67;1.67;;;;;13.72;58.95;100137.56;5050819;28;45533;-75
2023/03/24 07:32:25;;;;;;;;;1.00;1.00;;;;;13.73;59.51;100134.00;5048978;28;45466;-78
2023/03/24 07:34:50;;;;;;;;;3.00;2.00;;;;;13.66;59.74;100126.81;5046883;28;46300;-77
2023/03/24 07:37:15;;;;;;;;;3.67;3.33;;;;;13.60;59.25;100111.56;5045415;28;45683;-74
2023/03/24 07:39:41;;;;;;;;;9.00;4.00;;;;;13.81;59.55;100142.97;5042108;28;45322;-77
2023/03/24 07:42:06;;;;;;;;;6.00;5.00;;;;;13.87;59.21;100142.06;5047687;28;45310;-79
2023/03/24 07:44:32;;;;;;;;;1.33;1.33;;;;;13.75;58.80;100125.94;5049294;28;45483;-79
2023/03/24 07:46:57;;;;;;;;;4.00;3.67;;;;;13.85;58.58;100142.97;5040936;28;45237;-75
2023/03/24 07:49:23;;;;;;;;;1.67;1.00;;;;;13.93;58.79;100152.84;5041290;28;45563;-75
2023/03/24 07:51:48;;;;;;;;;2.67;1.67;;;;;14.01;58.12;100150.19;5054752;28;45618;-75
2023/03/24 07:54:13;;;;;;;;;4.33;2.33;;;;;14.07;57.96;100150.19;5053713;28;45652;-74
2023/03/24 07:56:39;;;;;;;;;3.00;1.67;;;;;13.98;57.32;100132.25;5044170;28;48984;-75
2023/03/24 07:59:04;;;;;;;;;3.00;2.00;;;;;14.12;57.63;100144.81;5046681;28;45589;-76
2023/03/24 08:01:30;;;;;;;;;5.67;2.00;;;;;14.25;57.38;100153.81;5043809;28;45358;-77
2023/03/24 08:03:57;;;;;;;;;5.00;2.33;;;;;14.28;57.28;100164.56;5039671;28;46188;-69
2023/03/24 08:06:22;;;;;;;;;7.00;5.00;;;;;14.34;56.70;100156.53;5051019;28;45575;-76
2023/03/24 08:08:47;;;;;;;;;6.67;2.00;;;;;14.41;56.90;100161.00;5052747;28;45520;-75
2023/03/24 08:11:15;;;;;;;;;3.00;3.00;;;;;14.44;56.35;100158.31;5048011;28;44816;-73
2023/03/24 08:13:40;;;;;;;;;5.67;2.33;;;;;14.55;56.20;100174.44;5044497;28;46309;-70
2023/03/24 08:16:06;;;;;;;;;3.00;1.00;;;;;14.59;55.79;100170.91;5049363;28;45286;-71
2023/03/24 08:18:33;;;;;;;;;3.00;2.00;;;;;14.59;55.39;100170.91;5044674;28;45393;-76
2023/03/24 08:21:00;;;;;;;;;2.33;2.00;;;;;14.61;55.36;100173.59;5045714;28;45477;-74
2023/03/24 08:23:27;;;;;;;;;3.00;1.00;;;;;14.62;54.97;100159.25;5050259;28;47888;-70
2023/03/24 08:25:52;;;;;;;;;2.00;1.00;;;;;14.55;54.65;100158.31;5043711;28;45447;-72
2023/03/24 08:28:18;;;;;;;;;6.00;2.33;;;;;14.70;54.84;100173.59;5050895;28;45537;-74
2023/03/24 08:30:44;;;;;;;;;2.67;1.00;;;;;14.65;54.81;100154.81;5055219;28;45371;-77
2023/03/24 08:33:12;;;;;;;;;4.00;2.33;;;;;14.84;53.52;100176.31;5046935;28;45476;-74
2023/03/24 08:35:38;;;;;;;;;4.00;2.00;;;;;14.87;53.56;100173.63;5048248;28;45316;-79
2023/03/24 08:38:04;;;;;;;;;5.33;3.00;;;;;14.87;53.04;100170.94;5051155;28;45502;-81
2023/03/24 08:40:30;;;;;;;;;2.67;2.00;;;;;14.83;52.98;100170.03;5054158;28;45528;-77
2023/03/24 08:42:59;;;;;;;;;2.00;1.00;;;;;14.88;52.78;100180.75;5049233;28;46466;-79
2023/03/24 08:45:29;;;;;;;;;3.00;2.67;;;;;14.85;52.86;100173.63;5042814;28;45718;-77
2023/03/24 08:47:55;;;;;;;;;2.00;2.00;;;;;15.06;52.57;100199.59;5042015;28;45654;-74
2023/03/24 08:50:24;;;;;;;;;9.00;2.00;;;;;15.09;51.91;100186.13;5042649;28;45524;-79
2023/03/24 08:52:50;;;;;;;;;4.00;2.33;;;;;15.04;51.65;100174.47;5044419;28;46261;-76
2023/03/24 08:55:17;;;;;;;;;2.33;2.00;;;;;15.22;51.86;100202.28;5050635;28;45604;-81
2023/03/24 08:57:44;;;;;;;;;4.00;3.00;;;;;15.17;51.09;100202.28;5047864;28;45652;-76
2023/03/24 09:00:14;;;;;;;;;0.67;0.67;;;;;15.20;51.34;100207.66;5057205;28;45553;-75
2023/03/24 09:02:51;;;;;;;;;4.00;3.00;;;;;15.23;51.77;100212.16;5056372;28;48130;-73
2023/03/24 09:05:20;;;;;;;;;2.00;2.00;;;;;15.12;51.64;100182.53;5050832;28;45569;-75
2023/03/24 09:07:47;;;;;;;;;6.00;2.33;;;;;15.28;51.19;100226.50;5056385;28;45755;-79
2023/03/24 09:10:13;;;;;;;;;4.00;2.00;;;;;15.22;50.84;100213.91;5046815;28;45410;-78
2023/03/24 09:12:39;;;;;;;;;4.67;2.33;;;;;15.28;51.20;100216.63;5061402;28;45554;-73
2023/03/24 09:15:07;;;;;;;;;3.67;2.33;;;;;15.30;51.19;100222.88;5047294;28;45319;-76
2023/03/24 09:17:33;;;;;;;;;2.00;1.00;;;;;15.16;51.11;100183.44;5056224;28;45362;-72
2023/03/24 09:19:58;;;;;;;;;7.33;4.00;;;;;15.42;51.18;100226.47;5056989;28;45456;-76
2023/03/24 09:22:23;;;;;;;;;6.00;3.67;;;;;15.43;51.20;100231.84;5062961;28;46275;-80
2023/03/24 09:24:49;;;;;;;;;3.33;1.67;;;;;15.50;51.03;100213.88;5059968;28;45282;-78
2023/03/24 09:27:15;;;;;;;;;3.00;2.00;;;;;15.61;50.54;100221.94;5057995;28;45426;-74
2023/03/24 09:29:41;;;;;;;;;4.33;3.00;;;;;15.69;50.62;100220.13;5045620;28;45817;-76
2023/03/24 09:32:06;;;;;;;;;5.00;1.67;;;;;15.63;49.55;100195.91;5042779;28;46333;-77
2023/03/24 09:34:32;;;;;;;;;5.00;2.00;;;;;15.86;49.42;100230.88;5053591;28;45412;-77
2023/03/24 09:36:58;;;;;;;;;2.00;2.00;;;;;15.87;49.09;100229.06;5037851;28;45496;-78
2023/03/24 09:39:24;;;;;;;;;5.67;0.00;;;;;15.77;49.36;100220.09;5045789;28;45467;-77
2023/03/24 09:41:49;;;;;;;;;3.67;2.00;;;;;15.57;49.70;100188.72;5041967;28;46013;-80
2023/03/24 09:44:33;;;;;;;;;2.33;1.33;;;;;15.83;49.04;100233.56;5049779;28;45353;-78
2023/03/24 09:47:25;;;;;;;;;4.33;3.00;;;;;15.84;47.92;100240.75;5056607;28;45254;-72
2023/03/24 09:49:51;;;;;;;;;5.33;2.33;;;;;15.77;48.62;100234.50;5044019;28;45537;-73
2023/03/24 09:52:23;;;;;;;;;6.33;3.67;;;;;15.84;48.34;100233.56;5043869;28;45398;-75
2023/03/24 09:54:53;;;;;;;;;2.00;2.00;;;;;15.86;47.78;100236.25;5051119;28;45467;-76
2023/03/24 09:57:36;;;;;;;;;3.33;1.00;;;;;15.88;47.98;100241.63;5050529;28;45455;-73
2023/03/24 10:00:15;;;;;;;;;2.00;0.33;;;;;15.77;47.59;100223.72;5054457;28;45319;-73
2023/03/24 10:02:40;;;;;;;;;1.67;1.67;;;;;15.87;47.64;100235.31;5048187;28;45424;-72
2023/03/24 10:05:20;;;;;;;;;3.33;2.67;;;;;15.90;47.66;100232.63;5042372;28;45462;-78
2023/03/24 10:07:58;;;;;;;;;3.67;0.67;;;;;15.89;47.03;100244.31;5043940;28;45427;-70
2023/03/24 10:10:46;;;;;;;;;2.00;2.00;;;;;15.84;47.40;100240.75;5043909;28;45449;-78
2023/03/24 10:13:20;;;;;;;;;1.67;1.67;;;;;15.82;47.64;100247.91;5050876;28;45951;-76
2023/03/24 10:15:56;;;;;;;;;7.00;3.00;;;;;15.71;47.44;100225.50;5045775;28;45443;-78
2023/03/24 10:18:48;;;;;;;;;1.00;1.00;;;;;15.78;47.07;100241.66;5048060;28;45320;-79
2023/03/24 10:21:24;;;;;;;;;3.67;0.67;;;;;15.78;47.13;100238.97;5039689;28;45996;-79
2023/03/24 10:24:22;;;;;;;;;1.67;1.67;;;;;15.87;46.01;100243.41;5047264;28;46145;-75
2023/03/24 10:27:09;;;;;;;;;0.67;0.67;;;;;15.92;45.33;100243.41;5045702;28;45895;-77
2023/03/24 10:29:37;;;;;;;;;1.33;1.33;;;;;16.00;45.73;100255.03;5056821;28;45453;-75
2023/03/24 10:32:15;;;;;;;;;5.33;2.67;;;;;16.01;45.00;100241.56;5049317;28;45358;-76
2023/03/24 10:34:43;;;;;;;;;2.00;2.00;;;;;16.09;45.87;100256.84;5057468;28;47149;-78
2023/03/24 10:37:13;;;;;;;;;3.33;1.67;;;;;15.97;45.53;100242.50;5045430;28;45544;-74
2023/03/24 10:39:38;;;;;;;;;3.67;1.67;;;;;15.96;45.94;100235.31;5045633;28;45395;-75
2023/03/24 10:42:04;;;;;;;;;9.33;2.67;;;;;16.09;46.33;100254.13;5041262;28;45421;-75
2023/03/24 10:44:30;;;;;;;;;6.33;3.67;;;;;16.07;46.31;100239.75;5048877;28;45986;-76
2023/03/24 10:47:00;;;;;;;;;5.00;2.00;;;;;16.21;46.37;100243.28;5056989;28;45452;-78
2023/03/24 10:49:26;;;;;;;;;1.33;1.33;;;;;16.15;46.65;100229.81;5048008;28;45426;-76
2023/03/24 10:52:00;;;;;;;;;2.00;2.00;;;;;16.11;46.43;100242.44;5044561;28;45601;-77
2023/03/24 10:54:30;;;;;;;;;1.00;1.00;;;;;15.84;47.28;100187.78;5042566;28;47268;-78
2023/03/24 10:56:59;;;;;;;;;1.67;0.67;;;;;16.23;47.20;100245.97;5044137;28;45366;-73
2023/03/24 10:59:36;;;;;;;;;3.00;1.33;;;;;16.27;46.40;100245.03;5042075;28;45670;-74
2023/03/24 11:02:08;;;;;;;;;0.67;0.67;;;;;16.28;46.68;100247.72;5059999;28;45505;-73
2023/03/24 11:04:38;;;;;;;;;3.33;1.00;;;;;16.18;46.24;100221.72;5053181;28;45671;-76
2023/03/24 11:07:19;;;;;;;;;3.00;2.33;;;;;16.36;46.99;100253.09;5048813;28;45365;-76
2023/03/24 11:10:08;;;;;;;;;4.67;1.67;;;;;16.39;46.80;100267.44;5057880;28;45546;-75
2023/03/24 11:12:36;;;;;;;;;4.00;0.67;;;;;16.41;46.16;100240.47;5044284;28;45392;-76
2023/03/24 11:15:22;;;;;;;;;1.67;1.67;;;;;16.43;46.03;100246.75;5054088;28;47172;-76
2023/03/24 11:17:57;;;;;;;;;2.00;2.00;;;;;16.59;45.81;100251.16;5071416;28;45068;-79
2023/03/24 11:20:53;;;;;;;;;1.67;1.67;;;;;16.58;45.37;100237.66;5055884;28;45494;-72
2023/03/24 11:23:27;;;;;;;;;1.00;1.00;;;;;16.72;45.17;100251.09;5062178;28;45626;-76
2023/03/24 11:26:27;;;;;;;;;2.00;1.00;;;;;16.76;45.08;100250.13;5049897;28;46326;-75
2023/03/24 11:28:57;;;;;;;;;2.67;1.33;;;;;16.68;44.76;100236.72;5040105;28;45435;-77
2023/03/24 11:31:30;;;;;;;;;1.00;1.00;;;;;16.79;45.33;100233.94;5040619;28;45345;-76
2023/03/24 11:34:24;;;;;;;;;3.67;3.00;;;;;16.71;44.51;100217.81;5054136;28;45318;-72
2023/03/24 11:36:57;;;;;;;;;4.00;2.00;;;;;16.74;44.27;100227.69;5043809;28;45627;-79
2023/03/24 11:39:32;;;;;;;;;3.00;2.67;;;;;16.76;46.10;100250.13;5041450;28;45565;-77
2023/03/24 11:42:04;;;;;;;;;2.33;2.00;;;;;16.65;48.30;100250.22;5059536;28;45386;-75
2023/03/24 11:44:31;;;;;;;;;1.00;1.00;;;;;16.39;48.44;100229.69;5050373;28;45683;-79
2023/03/24 11:47:15;;;;;;;;;4.00;1.00;;;;;16.41;48.00;100256.66;5043570;28;45441;-77